sensor_id;sensor_type;location;lat;lon;timestamp;temperature;humidity
65707;SHT31;52423;43.512;5.220;2023-01-29T00:02:20;0.51;77.25
65707;SHT31;52423;43.512;5.220;2023-01-29T00:04:46;0.51;77.17
65707;SHT31;52423;43.512;5.220;2023-01-29T00:07:11;0.42;76.95
65707;SHT31;52423;43.512;5.220;2023-01-29T00:09:36;0.37;77.30
65707;SHT31;52423;43.512;5.220;2023-01-29T00:12:01;0.44;77.53
65707;SHT31;52423;43.512;5.220;2023-01-29T00:14:27;0.55;78.07
65707;SHT31;52423;43.512;5.220;2023-01-29T00:16:52;0.64;77.96
65707;SHT31;52423;43.512;5.220;2023-01-29T00:19:18;0.71;77.55
65707;SHT31;52423;43.512;5.220;2023-01-29T00:21:43;0.68;77.44
65707;SHT31;52423;43.512;5.220;2023-01-29T00:24:09;0.64;77.18
65707;SHT31;52423;43.512;5.220;2023-01-29T00:26:34;0.57;77.19
65707;SHT31;52423;43.512;5.220;2023-01-29T00:29:01;0.52;77.26
65707;SHT31;52423;43.512;5.220;2023-01-29T00:31:27;0.48;77.70
65707;SHT31;52423;43.512;5.220;2023-01-29T00:33:52;0.47;77.65
65707;SHT31;52423;43.512;5.220;2023-01-29T00:36:18;0.36;78.06
65707;SHT31;52423;43.512;5.220;2023-01-29T00:38:43;0.40;77.99
65707;SHT31;52423;43.512;5.220;2023-01-29T00:41:13;0.32;78.05
65707;SHT31;52423;43.512;5.220;2023-01-29T00:43:58;0.28;78.10
65707;SHT31;52423;43.512;5.220;2023-01-29T00:46:42;0.21;77.95
65707;SHT31;52423;43.512;5.220;2023-01-29T00:49:07;0.27;77.82
65707;SHT31;52423;43.512;5.220;2023-01-29T00:51:33;0.25;77.78
65707;SHT31;52423;43.512;5.220;2023-01-29T00:53:58;0.18;78.01
65707;SHT31;52423;43.512;5.220;2023-01-29T00:56:29;0.13;78.61
65707;SHT31;52423;43.512;5.220;2023-01-29T00:58:55;0.00;78.58
65707;SHT31;52423;43.512;5.220;2023-01-29T01:01:20;-0.08;78.73
65707;SHT31;52423;43.512;5.220;2023-01-29T01:04:05;0.00;78.89
65707;SHT31;52423;43.512;5.220;2023-01-29T01:06:31;-0.10;78.66
65707;SHT31;52423;43.512;5.220;2023-01-29T01:08:56;0.06;78.91
65707;SHT31;52423;43.512;5.220;2023-01-29T01:11:40;0.07;78.91
65707;SHT31;52423;43.512;5.220;2023-01-29T01:14:05;0.04;78.51
65707;SHT31;52423;43.512;5.220;2023-01-29T01:16:30;-0.11;78.43
65707;SHT31;52423;43.512;5.220;2023-01-29T01:18:56;-0.03;79.15
65707;SHT31;52423;43.512;5.220;2023-01-29T01:21:21;0.03;78.32
65707;SHT31;52423;43.512;5.220;2023-01-29T01:23:46;-0.01;78.45
65707;SHT31;52423;43.512;5.220;2023-01-29T01:26:12;0.14;77.87
65707;SHT31;52423;43.512;5.220;2023-01-29T01:28:37;0.10;78.15
65707;SHT31;52423;43.512;5.220;2023-01-29T01:31:07;0.03;78.63
65707;SHT31;52423;43.512;5.220;2023-01-29T01:33:32;0.14;78.25
65707;SHT31;52423;43.512;5.220;2023-01-29T01:36:00;0.21;78.20
65707;SHT31;52423;43.512;5.220;2023-01-29T01:38:25;0.31;78.08
65707;SHT31;52423;43.512;5.220;2023-01-29T01:40:50;0.45;77.46
65707;SHT31;52423;43.512;5.220;2023-01-29T01:43:15;0.51;76.90
65707;SHT31;52423;43.512;5.220;2023-01-29T01:45:41;0.72;76.12
65707;SHT31;52423;43.512;5.220;2023-01-29T01:50:40;0.91;75.10
65707;SHT31;52423;43.512;5.220;2023-01-29T01:53:12;0.96;74.99
65707;SHT31;52423;43.512;5.220;2023-01-29T01:55:39;0.93;74.85
65707;SHT31;52423;43.512;5.220;2023-01-29T01:58:23;0.95;74.58
65707;SHT31;52423;43.512;5.220;2023-01-29T02:00:49;0.93;74.38
65707;SHT31;52423;43.512;5.220;2023-01-29T02:03:14;0.97;74.18
65707;SHT31;52423;43.512;5.220;2023-01-29T02:06:00;0.95;74.35
65707;SHT31;52423;43.512;5.220;2023-01-29T02:08:46;0.97;74.34
65707;SHT31;52423;43.512;5.220;2023-01-29T02:11:32;0.99;74.27
65707;SHT31;52423;43.512;5.220;2023-01-29T02:13:57;0.93;74.01
65707;SHT31;52423;43.512;5.220;2023-01-29T02:16:23;0.93;74.69
65707;SHT31;52423;43.512;5.220;2023-01-29T02:18:48;0.96;74.18
65707;SHT31;52423;43.512;5.220;2023-01-29T02:21:19;0.96;74.32
65707;SHT31;52423;43.512;5.220;2023-01-29T02:26:53;0.89;74.94
65707;SHT31;52423;43.512;5.220;2023-01-29T02:37:03;0.64;75.21
65707;SHT31;52423;43.512;5.220;2023-01-29T02:39:38;0.60;74.74
65707;SHT31;52423;43.512;5.220;2023-01-29T02:47:14;0.58;74.37
65707;SHT31;52423;43.512;5.220;2023-01-29T02:49:48;0.65;74.80
65707;SHT31;52423;43.512;5.220;2023-01-29T02:52:16;0.61;74.51
65707;SHT31;52423;43.512;5.220;2023-01-29T02:54:55;0.62;73.30
65707;SHT31;52423;43.512;5.220;2023-01-29T02:57:27;0.69;74.50
65707;SHT31;52423;43.512;5.220;2023-01-29T02:59:54;0.66;74.47
65707;SHT31;52423;43.512;5.220;2023-01-29T03:02:24;0.62;75.13
65707;SHT31;52423;43.512;5.220;2023-01-29T03:04:52;0.57;73.98
65707;SHT31;52423;43.512;5.220;2023-01-29T03:07:31;0.61;74.78
65707;SHT31;52423;43.512;5.220;2023-01-29T03:10:20;0.54;73.89
65707;SHT31;52423;43.512;5.220;2023-01-29T03:12:50;0.57;75.15
65707;SHT31;52423;43.512;5.220;2023-01-29T03:15:21;0.57;74.99
65707;SHT31;52423;43.512;5.220;2023-01-29T03:20:16;0.40;73.72
65707;SHT31;52423;43.512;5.220;2023-01-29T03:22:43;0.37;73.72
65707;SHT31;52423;43.512;5.220;2023-01-29T03:25:10;0.37;73.03
65707;SHT31;52423;43.512;5.220;2023-01-29T03:27:57;0.34;72.96
65707;SHT31;52423;43.512;5.220;2023-01-29T03:30:46;0.28;73.02
65707;SHT31;52423;43.512;5.220;2023-01-29T03:33:31;0.27;73.12
65707;SHT31;52423;43.512;5.220;2023-01-29T03:36:01;0.32;73.26
65707;SHT31;52423;43.512;5.220;2023-01-29T03:38:29;0.38;73.92
65707;SHT31;52423;43.512;5.220;2023-01-29T03:46:09;0.37;74.42
65707;SHT31;52423;43.512;5.220;2023-01-29T03:53:46;0.38;74.10
65707;SHT31;52423;43.512;5.220;2023-01-29T03:56:50;0.30;74.80
65707;SHT31;52423;43.512;5.220;2023-01-29T03:59:10;0.09;75.33
65707;SHT31;52423;43.512;5.220;2023-01-29T04:01:40;0.17;74.79
65707;SHT31;52423;43.512;5.220;2023-01-29T04:04:14;0.18;74.27
65707;SHT31;52423;43.512;5.220;2023-01-29T04:06:42;-0.01;75.12
65707;SHT31;52423;43.512;5.220;2023-01-29T04:11:42;-0.20;75.26
65707;SHT31;52423;43.512;5.220;2023-01-29T04:14:09;-0.14;75.72
65707;SHT31;52423;43.512;5.220;2023-01-29T04:16:35;-0.21;75.89
65707;SHT31;52423;43.512;5.220;2023-01-29T04:19:01;-0.25;76.23
65707;SHT31;52423;43.512;5.220;2023-01-29T04:21:27;-0.28;76.56
65707;SHT31;52423;43.512;5.220;2023-01-29T04:23:53;-0.37;75.79
65707;SHT31;52423;43.512;5.220;2023-01-29T04:31:34;0.07;73.67
65707;SHT31;52423;43.512;5.220;2023-01-29T04:41:36;0.28;75.28
65707;SHT31;52423;43.512;5.220;2023-01-29T04:44:07;0.32;75.00
65707;SHT31;52423;43.512;5.220;2023-01-29T04:46:40;0.25;73.75
65707;SHT31;52423;43.512;5.220;2023-01-29T04:56:50;0.28;73.36
65707;SHT31;52423;43.512;5.220;2023-01-29T04:59:19;0.36;73.92
65707;SHT31;52423;43.512;5.220;2023-01-29T05:01:44;0.36;73.52
65707;SHT31;52423;43.512;5.220;2023-01-29T05:04:12;0.42;72.27
65707;SHT31;52423;43.512;5.220;2023-01-29T05:06:38;0.45;73.01
65707;SHT31;52423;43.512;5.220;2023-01-29T05:09:04;0.47;73.29
65707;SHT31;52423;43.512;5.220;2023-01-29T05:11:29;0.52;74.04
65707;SHT31;52423;43.512;5.220;2023-01-29T05:13:56;0.48;73.13
65707;SHT31;52423;43.512;5.220;2023-01-29T05:16:23;0.51;73.95
65707;SHT31;52423;43.512;5.220;2023-01-29T05:18:49;0.47;74.13
65707;SHT31;52423;43.512;5.220;2023-01-29T05:21:15;0.47;73.96
65707;SHT31;52423;43.512;5.220;2023-01-29T05:23:40;0.34;74.19
65707;SHT31;52423;43.512;5.220;2023-01-29T05:26:17;0.31;74.67
65707;SHT31;52423;43.512;5.220;2023-01-29T05:29:00;0.27;75.19
65707;SHT31;52423;43.512;5.220;2023-01-29T05:31:26;0.23;74.78
65707;SHT31;52423;43.512;5.220;2023-01-29T05:33:51;0.18;74.74
65707;SHT31;52423;43.512;5.220;2023-01-29T05:36:16;0.23;74.71
65707;SHT31;52423;43.512;5.220;2023-01-29T05:38:42;0.18;74.73
65707;SHT31;52423;43.512;5.220;2023-01-29T05:41:07;0.25;74.46
65707;SHT31;52423;43.512;5.220;2023-01-29T05:43:32;0.11;74.11
65707;SHT31;52423;43.512;5.220;2023-01-29T05:45:59;0.06;73.97
65707;SHT31;52423;43.512;5.220;2023-01-29T05:48:25;0.03;74.05
65707;SHT31;52423;43.512;5.220;2023-01-29T05:50:51;0.06;74.47
65707;SHT31;52423;43.512;5.220;2023-01-29T05:53:16;0.09;75.17
65707;SHT31;52423;43.512;5.220;2023-01-29T05:55:47;0.13;74.52
65707;SHT31;52423;43.512;5.220;2023-01-29T05:58:13;0.18;74.96
65707;SHT31;52423;43.512;5.220;2023-01-29T06:00:38;0.21;74.93
65707;SHT31;52423;43.512;5.220;2023-01-29T06:03:04;0.14;73.54
65707;SHT31;52423;43.512;5.220;2023-01-29T06:05:29;0.03;72.97
65707;SHT31;52423;43.512;5.220;2023-01-29T06:07:54;-0.01;73.09
65707;SHT31;52423;43.512;5.220;2023-01-29T06:10:20;-0.01;72.79
65707;SHT31;52423;43.512;5.220;2023-01-29T06:12:45;-0.11;73.14
65707;SHT31;52423;43.512;5.220;2023-01-29T06:15:10;-0.04;73.48
65707;SHT31;52423;43.512;5.220;2023-01-29T06:17:36;-0.06;73.75
65707;SHT31;52423;43.512;5.220;2023-01-29T06:20:02;-0.07;73.89
65707;SHT31;52423;43.512;5.220;2023-01-29T06:22:27;-0.10;73.96
65707;SHT31;52423;43.512;5.220;2023-01-29T06:24:53;-0.10;74.36
65707;SHT31;52423;43.512;5.220;2023-01-29T06:27:18;-0.27;73.22
65707;SHT31;52423;43.512;5.220;2023-01-29T06:29:43;-0.25;73.07
65707;SHT31;52423;43.512;5.220;2023-01-29T06:32:08;-0.22;73.35
65707;SHT31;52423;43.512;5.220;2023-01-29T06:34:34;-0.20;72.59
65707;SHT31;52423;43.512;5.220;2023-01-29T06:36:59;-0.22;72.51
65707;SHT31;52423;43.512;5.220;2023-01-29T06:39:24;-0.21;72.21
65707;SHT31;52423;43.512;5.220;2023-01-29T06:41:49;-0.27;72.41
65707;SHT31;52423;43.512;5.220;2023-01-29T06:44:15;-0.17;71.97
65707;SHT31;52423;43.512;5.220;2023-01-29T06:46:40;-0.03;73.45
65707;SHT31;52423;43.512;5.220;2023-01-29T06:49:05;-0.18;74.49
65707;SHT31;52423;43.512;5.220;2023-01-29T06:51:30;-0.30;72.70
65707;SHT31;52423;43.512;5.220;2023-01-29T06:53:56;-0.31;72.49
65707;SHT31;52423;43.512;5.220;2023-01-29T06:56:22;-0.22;72.03
65707;SHT31;52423;43.512;5.220;2023-01-29T06:58:47;-0.21;72.75
65707;SHT31;52423;43.512;5.220;2023-01-29T07:01:12;-0.22;71.91
65707;SHT31;52423;43.512;5.220;2023-01-29T07:03:38;-0.08;72.03
65707;SHT31;52423;43.512;5.220;2023-01-29T07:06:05;-0.10;71.05
65707;SHT31;52423;43.512;5.220;2023-01-29T07:08:31;-0.01;71.17
65707;SHT31;52423;43.512;5.220;2023-01-29T07:10:59;0.00;70.60
65707;SHT31;52423;43.512;5.220;2023-01-29T07:13:25;0.09;70.06
65707;SHT31;52423;43.512;5.220;2023-01-29T07:15:50;0.14;69.83
65707;SHT31;52423;43.512;5.220;2023-01-29T07:18:15;0.23;69.41
65707;SHT31;52423;43.512;5.220;2023-01-29T07:20:41;0.25;68.76
65707;SHT31;52423;43.512;5.220;2023-01-29T07:23:10;0.34;68.74
65707;SHT31;52423;43.512;5.220;2023-01-29T07:25:35;0.38;68.48
65707;SHT31;52423;43.512;5.220;2023-01-29T07:28:01;0.45;69.02
65707;SHT31;52423;43.512;5.220;2023-01-29T07:30:26;0.57;67.93
65707;SHT31;52423;43.512;5.220;2023-01-29T07:32:52;0.61;67.89
65707;SHT31;52423;43.512;5.220;2023-01-29T07:35:17;0.71;68.70
65707;SHT31;52423;43.512;5.220;2023-01-29T07:37:42;0.75;67.61
65707;SHT31;52423;43.512;5.220;2023-01-29T07:40:08;0.79;67.70
65707;SHT31;52423;43.512;5.220;2023-01-29T07:42:36;0.95;66.71
65707;SHT31;52423;43.512;5.220;2023-01-29T07:45:01;1.12;66.95
65707;SHT31;52423;43.512;5.220;2023-01-29T07:47:27;1.24;65.87
65707;SHT31;52423;43.512;5.220;2023-01-29T07:49:52;1.47;64.81
65707;SHT31;52423;43.512;5.220;2023-01-29T07:52:17;1.68;64.27
65707;SHT31;52423;43.512;5.220;2023-01-29T07:54:42;1.94;62.77
65707;SHT31;52423;43.512;5.220;2023-01-29T07:57:08;2.12;62.12
65707;SHT31;52423;43.512;5.220;2023-01-29T07:59:33;2.29;61.55
65707;SHT31;52423;43.512;5.220;2023-01-29T08:01:58;2.49;60.91
65707;SHT31;52423;43.512;5.220;2023-01-29T08:04:23;2.52;61.06
65707;SHT31;52423;43.512;5.220;2023-01-29T08:06:49;2.72;60.29
65707;SHT31;52423;43.512;5.220;2023-01-29T08:09:14;2.93;61.00
65707;SHT31;52423;43.512;5.220;2023-01-29T08:11:39;3.15;59.19
65707;SHT31;52423;43.512;5.220;2023-01-29T08:14:05;3.12;59.30
65707;SHT31;52423;43.512;5.220;2023-01-29T08:16:30;3.31;60.18
65707;SHT31;52423;43.512;5.220;2023-01-29T08:18:55;3.58;60.66
65707;SHT31;52423;43.512;5.220;2023-01-29T08:21:20;3.60;59.30
65707;SHT31;52423;43.512;5.220;2023-01-29T08:23:46;3.80;56.60
65707;SHT31;52423;43.512;5.220;2023-01-29T08:26:11;3.90;55.90
65707;SHT31;52423;43.512;5.220;2023-01-29T08:28:36;4.18;58.47
65707;SHT31;52423;43.512;5.220;2023-01-29T08:31:03;4.17;58.58
65707;SHT31;52423;43.512;5.220;2023-01-29T08:33:28;4.06;59.48
65707;SHT31;52423;43.512;5.220;2023-01-29T08:35:53;3.98;61.71
65707;SHT31;52423;43.512;5.220;2023-01-29T08:38:19;3.56;62.02
65707;SHT31;52423;43.512;5.220;2023-01-29T08:40:44;3.66;63.67
65707;SHT31;52423;43.512;5.220;2023-01-29T08:43:10;3.51;64.51
65707;SHT31;52423;43.512;5.220;2023-01-29T08:45:36;3.28;64.76
65707;SHT31;52423;43.512;5.220;2023-01-29T08:48:02;3.53;63.66
65707;SHT31;52423;43.512;5.220;2023-01-29T08:50:27;3.39;63.88
65707;SHT31;52423;43.512;5.220;2023-01-29T08:52:58;3.29;63.91
65707;SHT31;52423;43.512;5.220;2023-01-29T08:55:23;3.09;63.73
65707;SHT31;52423;43.512;5.220;2023-01-29T08:57:49;3.24;64.50
65707;SHT31;52423;43.512;5.220;2023-01-29T09:00:14;3.16;64.28
65707;SHT31;52423;43.512;5.220;2023-01-29T09:02:39;3.15;64.26
65707;SHT31;52423;43.512;5.220;2023-01-29T09:05:05;3.22;64.75
65707;SHT31;52423;43.512;5.220;2023-01-29T09:09:53;3.75;63.69
65707;SHT31;52423;43.512;5.220;2023-01-29T09:12:19;4.10;61.68
65707;SHT31;52423;43.512;5.220;2023-01-29T09:14:44;3.91;63.22
65707;SHT31;52423;43.512;5.220;2023-01-29T09:17:10;3.62;63.06
65707;SHT31;52423;43.512;5.220;2023-01-29T09:19:35;3.32;63.93
65707;SHT31;52423;43.512;5.220;2023-01-29T09:22:00;3.46;64.19
65707;SHT31;52423;43.512;5.220;2023-01-29T09:24:26;3.31;64.62
65707;SHT31;52423;43.512;5.220;2023-01-29T09:26:51;3.38;65.72
65707;SHT31;52423;43.512;5.220;2023-01-29T09:29:17;3.45;64.97
65707;SHT31;52423;43.512;5.220;2023-01-29T09:31:42;3.42;65.20
65707;SHT31;52423;43.512;5.220;2023-01-29T09:34:07;3.48;64.68
65707;SHT31;52423;43.512;5.220;2023-01-29T09:36:33;3.77;65.08
65707;SHT31;52423;43.512;5.220;2023-01-29T09:38:58;3.80;64.47
65707;SHT31;52423;43.512;5.220;2023-01-29T09:45:19;4.73;61.89
65707;SHT31;52423;43.512;5.220;2023-01-29T09:47:14;5.03;61.22
65707;SHT31;52423;43.512;5.220;2023-01-29T09:49:46;5.36;60.58
65707;SHT31;52423;43.512;5.220;2023-01-29T09:52:25;5.58;60.12
65707;SHT31;52423;43.512;5.220;2023-01-29T09:57:49;5.78;60.54
65707;SHT31;52423;43.512;5.220;2023-01-29T10:00:21;5.96;58.48
65707;SHT31;52423;43.512;5.220;2023-01-29T10:03:19;6.05;58.22
65707;SHT31;52423;43.512;5.220;2023-01-29T10:11:24;6.57;57.12
65707;SHT31;52423;43.512;5.220;2023-01-29T10:16:54;6.76;56.04
65707;SHT31;52423;43.512;5.220;2023-01-29T10:22:41;6.30;57.46
65707;SHT31;52423;43.512;5.220;2023-01-29T10:25:12;6.10;57.22
65707;SHT31;52423;43.512;5.220;2023-01-29T10:27:40;6.25;57.06
65707;SHT31;52423;43.512;5.220;2023-01-29T10:32:46;6.37;57.03
65707;SHT31;52423;43.512;5.220;2023-01-29T10:35:25;6.56;56.24
65707;SHT31;52423;43.512;5.220;2023-01-29T10:37:53;6.39;55.86
65707;SHT31;52423;43.512;5.220;2023-01-29T10:40:37;6.41;55.70
65707;SHT31;52423;43.512;5.220;2023-01-29T10:43:10;6.60;54.01
65707;SHT31;52423;43.512;5.220;2023-01-29T10:45:47;6.67;54.75
65707;SHT31;52423;43.512;5.220;2023-01-29T10:48:39;6.53;55.16
65707;SHT31;52423;43.512;5.220;2023-01-29T10:53:44;6.47;55.20
65707;SHT31;52423;43.512;5.220;2023-01-29T10:58:57;6.77;53.88
65707;SHT31;52423;43.512;5.220;2023-01-29T11:01:23;6.84;55.13
65707;SHT31;52423;43.512;5.220;2023-01-29T11:03:56;6.94;54.47
65707;SHT31;52423;43.512;5.220;2023-01-29T11:06:23;6.90;55.49
65707;SHT31;52423;43.512;5.220;2023-01-29T11:08:54;7.22;48.60
65707;SHT31;52423;43.512;5.220;2023-01-29T11:11:26;7.23;50.29
65707;SHT31;52423;43.512;5.220;2023-01-29T11:14:00;7.21;51.47
65707;SHT31;52423;43.512;5.220;2023-01-29T11:16:38;7.42;49.34
65707;SHT31;52423;43.512;5.220;2023-01-29T11:19:04;7.49;48.70
65707;SHT31;52423;43.512;5.220;2023-01-29T11:21:29;7.43;50.03
65707;SHT31;52423;43.512;5.220;2023-01-29T11:24:12;7.49;51.05
65707;SHT31;52423;43.512;5.220;2023-01-29T11:26:41;7.53;50.51
65707;SHT31;52423;43.512;5.220;2023-01-29T11:31:52;7.71;51.02
65707;SHT31;52423;43.512;5.220;2023-01-29T11:34:20;7.94;47.82
65707;SHT31;52423;43.512;5.220;2023-01-29T11:36:45;8.00;48.81
65707;SHT31;52423;43.512;5.220;2023-01-29T11:39:17;8.12;49.50
65707;SHT31;52423;43.512;5.220;2023-01-29T11:41:47;8.10;48.63
65707;SHT31;52423;43.512;5.220;2023-01-29T11:44:17;8.02;48.67
65707;SHT31;52423;43.512;5.220;2023-01-29T11:46:43;8.08;48.71
65707;SHT31;52423;43.512;5.220;2023-01-29T11:49:20;8.12;48.50
65707;SHT31;52423;43.512;5.220;2023-01-29T11:51:51;8.17;49.89
65707;SHT31;52423;43.512;5.220;2023-01-29T11:54:18;8.05;49.62
65707;SHT31;52423;43.512;5.220;2023-01-29T11:56:46;7.98;49.49
65707;SHT31;52423;43.512;5.220;2023-01-29T12:01:50;8.30;50.77
65707;SHT31;52423;43.512;5.220;2023-01-29T12:04:19;8.27;50.60
65707;SHT31;52423;43.512;5.220;2023-01-29T12:06:46;8.32;51.20
65707;SHT31;52423;43.512;5.220;2023-01-29T12:09:21;8.46;50.72
65707;SHT31;52423;43.512;5.220;2023-01-29T12:11:47;8.56;49.47
65707;SHT31;52423;43.512;5.220;2023-01-29T12:14:30;8.56;49.38
65707;SHT31;52423;43.512;5.220;2023-01-29T12:20:03;8.70;48.36
65707;SHT31;52423;43.512;5.220;2023-01-29T12:22:52;8.76;48.09
65707;SHT31;52423;43.512;5.220;2023-01-29T12:25:37;8.73;48.57
65707;SHT31;52423;43.512;5.220;2023-01-29T12:30:47;8.80;47.34
65707;SHT31;52423;43.512;5.220;2023-01-29T12:35:52;8.73;48.20
65707;SHT31;52423;43.512;5.220;2023-01-29T12:38:20;8.72;47.72
65707;SHT31;52423;43.512;5.220;2023-01-29T12:41:02;8.82;47.88
65707;SHT31;52423;43.512;5.220;2023-01-29T12:43:41;8.96;48.24
65707;SHT31;52423;43.512;5.220;2023-01-29T12:46:15;9.04;47.63
65707;SHT31;52423;43.512;5.220;2023-01-29T12:48:44;9.09;48.15
65707;SHT31;52423;43.512;5.220;2023-01-29T12:51:20;9.11;48.53
65707;SHT31;52423;43.512;5.220;2023-01-29T12:53:56;9.24;46.08
65707;SHT31;52423;43.512;5.220;2023-01-29T12:56:29;9.21;47.25
65707;SHT31;52423;43.512;5.220;2023-01-29T12:58:59;9.27;47.41
65707;SHT31;52423;43.512;5.220;2023-01-29T13:01:30;9.33;46.80
65707;SHT31;52423;43.512;5.220;2023-01-29T13:06:53;9.45;45.68
65707;SHT31;52423;43.512;5.220;2023-01-29T13:09:27;9.31;47.21
65707;SHT31;52423;43.512;5.220;2023-01-29T13:12:09;9.41;45.52
65707;SHT31;52423;43.512;5.220;2023-01-29T13:17:24;9.01;49.49
65707;SHT31;52423;43.512;5.220;2023-01-29T13:19:53;9.09;48.78
65707;SHT31;52423;43.512;5.220;2023-01-29T13:22:25;9.10;47.90
65707;SHT31;52423;43.512;5.220;2023-01-29T13:24:52;9.24;47.60
65707;SHT31;52423;43.512;5.220;2023-01-29T13:27:24;9.24;48.62
65707;SHT31;52423;43.512;5.220;2023-01-29T13:29:50;9.28;48.21
65707;SHT31;52423;43.512;5.220;2023-01-29T13:32:31;9.35;47.91
65707;SHT31;52423;43.512;5.220;2023-01-29T13:35:11;9.23;48.18
65707;SHT31;52423;43.512;5.220;2023-01-29T13:37:45;9.24;48.30
65707;SHT31;52423;43.512;5.220;2023-01-29T13:40:27;9.27;49.68
65707;SHT31;52423;43.512;5.220;2023-01-29T13:42:54;9.34;47.82
65707;SHT31;52423;43.512;5.220;2023-01-29T13:45:41;9.30;47.55
65707;SHT31;52423;43.512;5.220;2023-01-29T13:48:22;9.24;47.95
65707;SHT31;52423;43.512;5.220;2023-01-29T13:50:50;9.37;49.31
65707;SHT31;52423;43.512;5.220;2023-01-29T13:53:23;9.34;47.92
65707;SHT31;52423;43.512;5.220;2023-01-29T13:55:49;9.38;49.67
65707;SHT31;52423;43.512;5.220;2023-01-29T14:00:55;9.42;46.76
65707;SHT31;52423;43.512;5.220;2023-01-29T14:08:40;9.54;48.48
65707;SHT31;52423;43.512;5.220;2023-01-29T14:13:46;9.59;46.60
65707;SHT31;52423;43.512;5.220;2023-01-29T14:18:48;9.38;48.11
65707;SHT31;52423;43.512;5.220;2023-01-29T14:21:31;9.33;47.64
65707;SHT31;52423;43.512;5.220;2023-01-29T14:26:42;9.26;48.21
65707;SHT31;52423;43.512;5.220;2023-01-29T14:36:43;9.33;47.82
65707;SHT31;52423;43.512;5.220;2023-01-29T14:39:22;9.28;49.79
65707;SHT31;52423;43.512;5.220;2023-01-29T14:41:50;9.23;48.35
65707;SHT31;52423;43.512;5.220;2023-01-29T14:47:20;9.26;46.69
65707;SHT31;52423;43.512;5.220;2023-01-29T14:52:45;9.09;48.94
65707;SHT31;52423;43.512;5.220;2023-01-29T14:55:39;9.10;50.04
65707;SHT31;52423;43.512;5.220;2023-01-29T14:58:12;9.00;50.24
65707;SHT31;52423;43.512;5.220;2023-01-29T15:00:42;9.04;49.49
65707;SHT31;52423;43.512;5.220;2023-01-29T15:03:17;8.97;49.99
65707;SHT31;52423;43.512;5.220;2023-01-29T15:05:44;8.94;50.38
65707;SHT31;52423;43.512;5.220;2023-01-29T15:08:26;8.92;50.42
65707;SHT31;52423;43.512;5.220;2023-01-29T15:10:56;8.86;48.62
65707;SHT31;52423;43.512;5.220;2023-01-29T15:17:26;8.75;48.41
65707;SHT31;52423;43.512;5.220;2023-01-29T15:19:53;8.80;47.52
65707;SHT31;52423;43.512;5.220;2023-01-29T15:22:23;8.68;49.91
65707;SHT31;52423;43.512;5.220;2023-01-29T15:25:06;8.58;49.48
65707;SHT31;52423;43.512;5.220;2023-01-29T15:27:32;8.63;48.86
65707;SHT31;52423;43.512;5.220;2023-01-29T15:30:00;8.61;48.46
65707;SHT31;52423;43.512;5.220;2023-01-29T15:32:34;8.55;49.04
65707;SHT31;52423;43.512;5.220;2023-01-29T15:35:06;8.38;49.97
65707;SHT31;52423;43.512;5.220;2023-01-29T15:37:34;8.44;47.74
65707;SHT31;52423;43.512;5.220;2023-01-29T15:40:01;8.45;47.36
65707;SHT31;52423;43.512;5.220;2023-01-29T15:42:28;8.37;50.02
65707;SHT31;52423;43.512;5.220;2023-01-29T15:44:54;8.32;49.47
65707;SHT31;52423;43.512;5.220;2023-01-29T15:47:26;8.25;49.40
65707;SHT31;52423;43.512;5.220;2023-01-29T15:49:53;8.25;51.06
65707;SHT31;52423;43.512;5.220;2023-01-29T15:52:31;8.01;50.97
65707;SHT31;52423;43.512;5.220;2023-01-29T15:55:02;8.04;49.65
65707;SHT31;52423;43.512;5.220;2023-01-29T15:57:34;7.94;51.51
65707;SHT31;52423;43.512;5.220;2023-01-29T16:00:03;7.76;51.81
65707;SHT31;52423;43.512;5.220;2023-01-29T16:05:02;7.59;51.39
65707;SHT31;52423;43.512;5.220;2023-01-29T16:07:27;7.50;52.39
65707;SHT31;52423;43.512;5.220;2023-01-29T16:09:54;7.39;52.44
65707;SHT31;52423;43.512;5.220;2023-01-29T16:12:20;7.29;53.73
65707;SHT31;52423;43.512;5.220;2023-01-29T16:14:47;7.14;53.46
65707;SHT31;52423;43.512;5.220;2023-01-29T16:17:25;7.07;53.20
65707;SHT31;52423;43.512;5.220;2023-01-29T16:19:56;6.97;54.34
65707;SHT31;52423;43.512;5.220;2023-01-29T16:22:21;6.83;54.31
65707;SHT31;52423;43.512;5.220;2023-01-29T16:24:47;6.78;54.47
65707;SHT31;52423;43.512;5.220;2023-01-29T16:27:17;6.67;54.59
65707;SHT31;52423;43.512;5.220;2023-01-29T16:29:43;6.54;55.42
65707;SHT31;52423;43.512;5.220;2023-01-29T16:32:09;6.46;56.41
65707;SHT31;52423;43.512;5.220;2023-01-29T16:34:39;6.40;56.50
65707;SHT31;52423;43.512;5.220;2023-01-29T16:37:17;6.33;56.70
65707;SHT31;52423;43.512;5.220;2023-01-29T16:39:46;6.23;56.94
65707;SHT31;52423;43.512;5.220;2023-01-29T16:44:53;6.05;58.47
65707;SHT31;52423;43.512;5.220;2023-01-29T16:47:28;6.02;58.12
65707;SHT31;52423;43.512;5.220;2023-01-29T16:52:31;5.96;57.90
65707;SHT31;52423;43.512;5.220;2023-01-29T16:55:19;5.91;58.22
65707;SHT31;52423;43.512;5.220;2023-01-29T16:57:52;5.92;58.01
65707;SHT31;52423;43.512;5.220;2023-01-29T17:00:26;5.88;58.10
65707;SHT31;52423;43.512;5.220;2023-01-29T17:02:56;5.85;58.41
65707;SHT31;52423;43.512;5.220;2023-01-29T17:05:29;5.88;57.15
65707;SHT31;52423;43.512;5.220;2023-01-29T17:07:57;5.82;58.19
65707;SHT31;52423;43.512;5.220;2023-01-29T17:10:23;5.78;59.04
65707;SHT31;52423;43.512;5.220;2023-01-29T17:18:23;5.52;58.90
65707;SHT31;52423;43.512;5.220;2023-01-29T17:20:49;5.48;59.15
65707;SHT31;52423;43.512;5.220;2023-01-29T17:23:17;5.47;59.73
65707;SHT31;52423;43.512;5.220;2023-01-29T17:25:42;5.41;59.68
65707;SHT31;52423;43.512;5.220;2023-01-29T17:28:11;5.46;58.09
65707;SHT31;52423;43.512;5.220;2023-01-29T17:30:37;5.43;58.86
65707;SHT31;52423;43.512;5.220;2023-01-29T17:33:14;5.46;59.35
65707;SHT31;52423;43.512;5.220;2023-01-29T17:35:41;5.30;58.96
65707;SHT31;52423;43.512;5.220;2023-01-29T17:38:15;5.27;58.89
65707;SHT31;52423;43.512;5.220;2023-01-29T17:40:54;5.27;58.13
65707;SHT31;52423;43.512;5.220;2023-01-29T17:43:20;5.23;58.60
65707;SHT31;52423;43.512;5.220;2023-01-29T17:45:46;5.17;58.48
65707;SHT31;52423;43.512;5.220;2023-01-29T17:48:21;5.17;58.38
65707;SHT31;52423;43.512;5.220;2023-01-29T17:50:49;5.13;58.10
65707;SHT31;52423;43.512;5.220;2023-01-29T17:53:18;5.06;58.61
65707;SHT31;52423;43.512;5.220;2023-01-29T17:55:43;5.03;58.93
65707;SHT31;52423;43.512;5.220;2023-01-29T17:58:19;5.01;58.79
65707;SHT31;52423;43.512;5.220;2023-01-29T18:00:46;4.96;59.07
65707;SHT31;52423;43.512;5.220;2023-01-29T18:03:12;4.93;58.62
65707;SHT31;52423;43.512;5.220;2023-01-29T18:05:37;4.89;58.67
65707;SHT31;52423;43.512;5.220;2023-01-29T18:08:18;4.85;60.57
65707;SHT31;52423;43.512;5.220;2023-01-29T18:10:44;4.80;60.74
65707;SHT31;52423;43.512;5.220;2023-01-29T18:13:10;4.72;59.37
65707;SHT31;52423;43.512;5.220;2023-01-29T18:15:35;4.66;60.10
65707;SHT31;52423;43.512;5.220;2023-01-29T18:18:02;4.68;59.56
65707;SHT31;52423;43.512;5.220;2023-01-29T18:20:28;4.69;60.49
65707;SHT31;52423;43.512;5.220;2023-01-29T18:22:54;4.62;60.85
65707;SHT31;52423;43.512;5.220;2023-01-29T18:25:19;4.58;61.52
65707;SHT31;52423;43.512;5.220;2023-01-29T18:27:45;4.58;60.78